Архив погоды в Николо-Поломе

Метеограмма Николо-Полома
Понедельник, 22 Октября
Время местн. Темп Ветер Видим Явления Облачность нижн/средн/верх Атм. давл. Влжн Точка росы ВНГО R Сост. почвы Tg s
Напр Скр Прв ур.ст ур.м изм
09:00 +2.3° Ю-З 3 - 17 км - облачно 752 766 -1.4 89% +0.7° 600 м - - - -
06:00 +1.6° Ю,Ю-З 3 - 20 км - облачно 754 768 -1.3 89% 600 м - Влажная (без луж) - -
03:00 -0.7° Ю 2 - 4 км дымка преимущественно облачно 755 769 -1.1 95% -1.4° 600 м - - - -
00:00 +2.3° Ю-З 2 - 20 км - облачно 756 770 0 81% -0.7° 600 м - - - -
Воскресенье, 21 Октября
Время местн. Темп Ветер Видим Явления Облачность нижн/средн/верх Атм. давл. Влжн Точка росы ВНГО R Сост. почвы Tg s
Напр Скр Прв ур.ст ур.м изм
18:00 +2.1° С,С-В 1 - 20 км - облачно 756 770 -0.3 83% -0.4° 600 м - - - -
15:00 +2.5° С 2 - 50 км - облачно 756 770 +0.2 81% -0.5° 600 м - - - -
12:00 +2.1° З,С-З 1 - 50 км - облачно 756 770 +0.8 78% -1.3° 600 м - - - -
09:00 +1.5° С,С-В 2 - 9 км дымка {дождь} облачно 755 769 +3.9 92% +0.4° 600 м - - - -
06:00 +2.7° З,С-З 1 - 4 км дымка облачно с прояснениями 751 765 +0.8 91% +1.4° 600 м - Влажная (без луж) - -
03:00 +2.8° З,С-З 2 - 4 км дымка облачно 750 764 -0.5 91% +1.5° более 2.5 км - - - -
00:00 +2.2° З 2 - 4 км дымка переменная облачность 751 765 - 95% +1.5° 1 км - - - -
Суббота, 20 Октября
Время местн. Темп Ветер Видим Явления Облачность нижн/средн/верх Атм. давл. Влжн Точка росы ВНГО R Сост. почвы Tg s
Напр Скр Прв ур.ст ур.м изм
21:00 +4.8° З,С-З 2 - 10 км - облачно 752 766 +1.4 87% +2.8° 1 км - - - -
18:00 +3.5° З 2 - 10 км - облачно с прояснениями 750 764 +1.1 91% +2.2° 600 м - - - -
15:00 +7° З,С-З 3 - 50 км - переменная облачность 749 763 +0.9 75% +2.9° 600 м - - - -
12:00 +7.2° З,С-З 3 - 50 км - преимущественно облачно 748 762 +1 74% +2.9° 600 м - - - -
09:00 +4.3° З 2 - 15 км - переменная облачность 747 761 +0.6 92% +3.1° 600 м - - - -
06:00 +3° З 2 - 4 км дымка переменная облачность 747 761 +0.1 97% +2.5° - - Влажная (без луж) - -
03:00 +1.8° Ю-З 2 - 4 км дымка ясно 747 761 +0.3 98% +1.5° более 2.5 км - - - -
00:00 +3.8° З 2 - 4 км дымка ясно 746 760 +0.5 95% +3.1° более 2.5 км - - - -
Пятница, 19 Октября
Время местн. Темп Ветер Видим Явления Облачность нижн/средн/верх Атм. давл. Влжн Точка росы ВНГО R Сост. почвы Tg s
Напр Скр Прв ур.ст ур.м изм
21:00 +6° Ю-З 2 - 4 км дымка ясно 746 760 +0.7 94% +5.1° более 2.5 км - - - -
18:00 +8.2° Ю-З 2 - 20 км - переменная облачность 745 758 +0.1 86% +6° - - - - -
15:00 +10.9° З 4 - 50 км - облачно с прояснениями 745 759 +0.5 76% +6.9° 1 км - - - -
12:00 +1.2° З 3 - 50 км - облачно 745 758 +0.1 143% +6.3° - - - - -
09:00 +6.6° Ю-З 3 - 15 км - ясно 745 758 -0.7 91% +5.2° более 2.5 км - - - -
06:00 +4.4° Ю,Ю-З 2 - 4 км дымка ясно 745 759 -1.3 95% +3.7° более 2.5 км 0 Влажная (без луж) +1° -
03:00 +5.9° Ю,Ю-З 2 - 4 км дымка переменная облачность 747 760 -0.8 95% +5.2° более 2.5 км - - - -